Time;durP1;ratioP1;P1;durP2;ratioP2;P2;SDS_P1;SDS_P2;PMS_P1;PMS_P2;Temp;Humidity;BMP_temperature;BMP_pressure;BME280_temperature;BME280_humidity;BME280_pressure;Samples;Min_cycle;Max_cycle;Signal;HPM_P1;HPM_P2
2022/07/04 00:00:14;;;;;;;6.55;2.45;;;;;;;23.25;45.69;99457.41;5025819;28;20103;-91
2022/07/04 00:02:40;;;;;;;3.85;2.60;;;;;;;23.19;46.14;99454.09;5025447;28;20550;-91
2022/07/04 00:05:10;;;;;;;8.85;2.80;;;;;;;23.11;46.03;99460.53;5041765;28;20028;-91
2022/07/04 00:07:42;;;;;;;8.18;2.90;;;;;;;23.16;45.87;99459.50;5041966;28;20413;-92
2022/07/04 00:10:09;;;;;;;7.40;2.70;;;;;;;23.05;46.18;99450.16;5026450;28;20031;-92
2022/07/04 00:12:35;;;;;;;6.05;2.80;;;;;;;23.08;46.42;99458.50;5025145;28;20032;-92
2022/07/04 00:15:01;;;;;;;6.70;2.67;;;;;;;22.80;47.27;99453.75;5025936;28;20047;-92
2022/07/04 00:17:26;;;;;;;5.22;2.78;;;;;;;22.79;48.09;99454.94;5025889;28;20102;-92
2022/07/04 00:19:52;;;;;;;5.57;2.90;;;;;;;22.57;48.04;99433.50;5025856;28;20028;-92
2022/07/04 00:22:17;;;;;;;7.93;2.70;;;;;;;22.49;48.23;99426.97;5042507;28;20027;-92
2022/07/04 00:24:43;;;;;;;4.47;2.63;;;;;;;22.53;48.75;99440.81;5025733;28;20024;-92
2022/07/04 00:27:08;;;;;;;4.90;2.45;;;;;;;22.60;49.13;99457.50;5025654;28;20086;-92
2022/07/04 00:29:34;;;;;;;5.70;3.15;;;;;;;22.51;48.94;99445.84;5025531;28;20394;-92
2022/07/04 00:32:00;;;;;;;9.02;3.05;;;;;;;22.38;49.45;99440.41;5025221;28;20055;-91
2022/07/04 00:34:25;;;;;;;5.13;2.90;;;;;;;22.33;49.38;99450.78;5024846;28;20074;-92
2022/07/04 00:36:51;;;;;;;4.45;2.58;;;;;;;22.37;49.60;99449.78;5024814;28;20020;-91
2022/07/04 00:39:17;;;;;;;3.42;2.25;;;;;;;22.16;49.73;99433.44;5025532;28;20020;-92
2022/07/04 00:41:42;;;;;;;4.55;2.60;;;;;;;22.29;49.15;99455.41;5025581;28;20031;-92
2022/07/04 00:44:09;;;;;;;3.85;2.58;;;;;;;22.12;49.11;99431.72;5041116;28;20025;-92
2022/07/04 00:46:35;;;;;;;5.55;2.80;;;;;;;22.23;49.11;99449.34;5042553;28;20024;-92
2022/07/04 00:49:01;;;;;;;4.38;2.40;;;;;;;22.10;48.71;99437.56;5025634;28;20082;-92
2022/07/04 00:51:26;;;;;;;10.10;3.05;;;;;;;22.14;48.44;99443.97;5025718;28;20102;-92
2022/07/04 00:53:55;;;;;;;8.15;2.65;;;;;;;22.14;48.59;99441.22;5026107;28;20044;-92
2022/07/04 00:56:21;;;;;;;3.97;3.10;;;;;;;22.13;48.20;99420.41;5025177;28;20119;-91
2022/07/04 00:58:47;;;;;;;6.05;2.80;;;;;;;22.38;47.56;99437.66;5025673;28;20024;-91
2022/07/04 01:01:12;;;;;;;6.40;2.83;;;;;;;22.45;48.12;99439.00;5024885;28;20058;-92
2022/07/04 01:03:38;;;;;;;3.45;2.60;;;;;;;22.14;49.31;99434.91;5024932;28;20024;-92
2022/07/04 01:06:03;;;;;;;4.95;3.15;;;;;;;22.11;51.81;99425.44;5024463;28;20021;-92
2022/07/04 01:08:29;;;;;;;6.22;3.15;;;;;;;21.96;53.60;99424.19;5025064;28;20028;-92
2022/07/04 01:10:54;;;;;;;4.45;3.10;;;;;;;22.05;52.90;99426.03;5024473;28;20024;-91
2022/07/04 01:13:21;;;;;;;7.05;2.90;;;;;;;22.14;51.65;99434.91;5040871;28;20055;-91
2022/07/04 01:15:46;;;;;;;6.30;2.63;;;;;;;22.02;51.77;99419.28;5024601;28;20024;-92
2022/07/04 01:18:12;;;;;;;5.13;2.95;;;;;;;22.00;50.78;99418.81;5023763;28;20071;-91
2022/07/04 01:20:37;;;;;;;5.85;2.97;;;;;;;21.91;50.56;99420.88;5023683;28;20052;-90
2022/07/04 01:23:03;;;;;;;7.18;2.63;;;;;;;21.95;50.07;99425.31;5023623;28;20035;-94
2022/07/04 01:25:29;;;;;;;7.68;2.75;;;;;;;21.98;49.22;99429.34;5023898;28;20024;-93
2022/07/04 01:27:54;;;;;;;4.70;2.92;;;;;;;21.97;52.22;99439.47;5023504;28;20020;-92
2022/07/04 01:30:20;;;;;;;7.68;2.90;;;;;;;21.82;53.11;99410.03;5023543;28;20020;-92
2022/07/04 01:32:45;;;;;;;4.85;3.00;;;;;;;21.92;52.74;99427.97;5023594;28;20027;-92
2022/07/04 01:35:12;;;;;;;5.28;3.00;;;;;;;21.83;51.49;99417.13;5023590;28;20024;-91
2022/07/04 01:37:38;;;;;;;7.65;2.95;;;;;;;21.70;52.77;99421.00;5023803;28;20020;-93
2022/07/04 01:40:04;;;;;;;4.95;3.15;;;;;;;21.68;52.89;99426.00;5040517;28;20104;-91
2022/07/04 01:42:29;;;;;;;7.25;3.15;;;;;;;21.63;54.30;99421.56;5024138;28;20059;-94
2022/07/04 01:44:55;;;;;;;8.68;3.22;;;;;;;21.72;54.27;99421.44;5024080;28;20435;-93
2022/07/04 01:47:20;;;;;;;5.55;3.35;;;;;;;21.65;54.72;99435.72;5023522;28;20086;-94
2022/07/04 01:49:46;;;;;;;5.00;3.30;;;;;;;21.51;55.16;99433.28;5023140;28;20020;-93
2022/07/04 01:52:11;;;;;;;9.18;3.42;;;;;;;21.48;54.94;99433.16;5039966;28;20071;-92
2022/07/04 01:54:37;;;;;;;8.90;3.80;;;;;;;21.41;55.59;99436.44;5023962;28;20112;-92
2022/07/04 01:57:02;;;;;;;6.43;3.22;;;;;;;21.34;56.90;99426.03;5040390;28;20117;-93
2022/07/04 02:02:12;;;;;;;7.22;3.47;;;;;;;21.34;56.69;99428.00;5045180;28;20031;-93
2022/07/04 02:04:38;;;;;;;8.98;3.05;;;;;;;21.24;57.06;99429.22;5022778;28;20024;-93
2022/07/04 02:07:03;;;;;;;7.03;3.40;;;;;;;21.25;56.63;99440.97;5023026;28;20025;-93
2022/07/04 02:09:30;;;;;;;5.95;3.42;;;;;;;21.10;57.92;99443.19;5023149;28;20032;-93
2022/07/04 02:14:41;;;;;;;6.63;4.25;;;;;;;21.02;58.16;99452.28;5045058;28;20082;-92
2022/07/04 02:17:07;;;;;;;10.38;3.30;;;;;;;21.06;58.14;99455.16;5023301;28;20107;-93
2022/07/04 02:19:32;;;;;;;4.38;3.63;;;;;;;20.86;57.87;99445.88;5039235;28;20076;-92
2022/07/04 02:21:58;;;;;;;6.70;3.65;;;;;;;21.09;57.88;99463.53;5022729;28;20025;-92
2022/07/04 02:24:24;;;;;;;5.63;3.40;;;;;;;20.97;58.70;99468.94;5022549;28;20032;-93
2022/07/04 02:26:49;;;;;;;6.85;3.92;;;;;;;20.93;58.17;99466.06;5023175;28;20115;-93
2022/07/04 02:29:15;;;;;;;10.07;4.10;;;;;;;20.88;58.60;99465.50;5022785;28;20460;-93
2022/07/04 02:31:41;;;;;;;4.97;3.28;;;;;;;20.81;58.86;99455.06;5022712;28;20032;-92
2022/07/04 02:34:06;;;;;;;9.52;4.35;;;;;;;20.85;58.71;99466.16;5022352;28;20405;-92
2022/07/04 02:36:32;;;;;;;6.47;3.97;;;;;;;20.85;58.64;99458.72;5022475;28;20048;-93
2022/07/04 02:38:57;;;;;;;7.25;4.00;;;;;;;20.73;58.93;99466.88;5039046;28;20020;-93
2022/07/04 02:41:23;;;;;;;7.80;3.75;;;;;;;20.66;59.78;99461.94;5022530;28;20029;-93
2022/07/04 02:43:48;;;;;;;6.40;3.47;;;;;;;20.71;58.92;99469.97;5023127;28;20072;-93
2022/07/04 02:46:13;;;;;;;5.03;3.90;;;;;;;20.83;58.43;99488.38;5022355;28;20028;-92
2022/07/04 02:48:39;;;;;;;7.43;3.20;;;;;;;20.81;56.82;99470.69;5022184;28;20115;-93
2022/07/04 02:51:04;;;;;;;6.80;3.85;;;;;;;20.69;58.85;99483.19;5022107;28;20085;-93
2022/07/04 02:53:30;;;;;;;6.78;3.40;;;;;;;20.70;59.31;99483.97;5022330;28;20375;-93
2022/07/04 02:55:55;;;;;;;7.43;3.38;;;;;;;20.69;58.58;99487.81;5022312;28;20020;-92
2022/07/04 02:58:21;;;;;;;7.32;3.92;;;;;;;20.62;58.62;99477.44;5022407;28;20024;-92
2022/07/04 03:00:46;;;;;;;8.20;3.50;;;;;;;20.56;58.07;99467.78;5022019;28;20021;-92
2022/07/04 03:03:12;;;;;;;11.00;3.80;;;;;;;20.68;56.41;99483.50;5021856;28;20025;-93
2022/07/04 03:05:37;;;;;;;8.07;3.70;;;;;;;20.54;58.24;99470.03;5038310;28;20070;-92
2022/07/04 03:08:03;;;;;;;9.90;3.40;;;;;;;20.57;57.54;99477.59;5022275;28;20115;-93
2022/07/04 03:10:28;;;;;;;8.02;3.50;;;;;;;20.52;59.21;99486.81;5039161;28;20051;-93
2022/07/04 03:12:54;;;;;;;9.30;3.63;;;;;;;20.56;58.47;99489.66;5022101;28;20045;-93
2022/07/04 03:15:19;;;;;;;8.70;3.70;;;;;;;20.39;58.96;99480.44;5022427;28;20119;-92
2022/07/04 03:17:45;;;;;;;8.18;3.40;;;;;;;20.48;58.45;99496.81;5022677;28;20123;-93
2022/07/04 03:20:10;;;;;;;8.23;3.72;;;;;;;20.25;59.58;99487.28;5022081;28;20028;-92
2022/07/04 03:22:36;;;;;;;7.18;3.58;;;;;;;20.27;58.76;99491.28;5021951;28;20047;-93
2022/07/04 03:25:02;;;;;;;7.72;3.50;;;;;;;20.25;59.56;99490.81;5038835;28;20027;-93
2022/07/04 03:27:27;;;;;;;10.75;3.85;;;;;;;20.37;58.42;99499.09;5022903;28;20493;-93
2022/07/04 03:29:53;;;;;;;7.18;3.42;;;;;;;20.49;57.75;99503.09;5022118;28;20025;-94
2022/07/04 03:32:18;;;;;;;6.90;3.08;;;;;;;20.45;55.46;99494.72;5023401;28;20020;-93
2022/07/04 03:34:44;;;;;;;5.47;3.35;;;;;;;20.50;54.76;99483.59;5021921;28;20017;-92
2022/07/04 03:37:09;;;;;;;6.72;3.17;;;;;;;20.66;55.63;99497.50;5022235;28;20544;-92
2022/07/04 03:39:34;;;;;;;12.95;3.58;;;;;;;20.56;55.96;99492.41;5021919;28;20043;-93
2022/07/04 03:42:00;;;;;;;6.43;3.20;;;;;;;20.39;55.75;99480.44;5021753;28;20021;-93
2022/07/04 03:44:25;;;;;;;4.47;3.53;;;;;;;20.44;56.71;99482.19;5022298;28;20025;-93
2022/07/04 03:46:51;;;;;;;6.13;3.35;;;;;;;20.63;55.06;99495.47;5022422;28;20021;-92
2022/07/04 03:49:16;;;;;;;6.05;3.17;;;;;;;20.61;55.25;99486.78;5038256;28;20391;-92
2022/07/04 03:51:42;;;;;;;8.95;3.50;;;;;;;20.77;54.45;99495.19;5018209;28;20037;-92
2022/07/04 03:54:07;;;;;;;7.00;3.72;;;;;;;20.89;53.82;99500.72;5018627;28;20406;-93
2022/07/04 03:56:33;;;;;;;9.82;3.80;;;;;;;21.02;53.08;99509.00;5034907;28;20028;-91
2022/07/04 03:58:58;;;;;;;11.65;4.22;;;;;;;20.99;53.49;99499.53;5018797;28;20032;-92
2022/07/04 04:01:24;;;;;;;8.80;4.65;;;;;;;20.84;53.53;99491.94;5019593;28;20025;-92
2022/07/04 04:06:34;;;;;;;10.02;3.30;;;;;;;21.03;52.32;99503.19;5038160;28;20040;-94
2022/07/04 04:08:59;;;;;;;8.32;3.47;;;;;;;21.07;52.28;99497.84;5018316;28;20033;-95
2022/07/04 04:11:25;;;;;;;7.93;3.10;;;;;;;20.94;53.32;99483.31;5019041;28;20025;-93
2022/07/04 04:13:50;;;;;;;5.82;3.08;;;;;;;20.97;52.94;99488.09;5021634;28;20184;-93
2022/07/04 04:16:16;;;;;;;20.67;4.70;;;;;;;20.82;54.17;99507.88;5023588;28;20074;-94
2022/07/04 04:18:42;;;;;;;6.55;3.50;;;;;;;20.71;54.21;99494.59;5039034;28;20050;-94
2022/07/04 04:21:07;;;;;;;8.32;3.25;;;;;;;20.84;53.70;99500.13;5039068;28;20029;-94
2022/07/04 04:23:33;;;;;;;7.88;4.38;;;;;;;20.82;53.60;99519.63;5022091;28;20054;-94
2022/07/04 04:25:59;;;;;;;7.97;3.50;;;;;;;20.75;54.42;99500.19;5022912;28;20029;-94
2022/07/04 04:28:25;;;;;;;5.88;3.17;;;;;;;20.77;53.78;99492.44;5022958;28;20056;-93
2022/07/04 04:30:50;;;;;;;5.13;3.55;;;;;;;20.79;52.99;99501.13;5022278;28;20029;-94
2022/07/04 04:33:16;;;;;;;20.88;3.50;;;;;;;20.70;53.80;99495.72;5022089;28;20384;-94
2022/07/04 04:35:41;;;;;;;27.70;9.75;;;;;;;20.71;53.48;99486.38;5022210;28;20025;-94
2022/07/04 04:38:07;;;;;;;9.25;3.28;;;;;;;20.88;54.24;99498.34;5022608;28;20029;-95
2022/07/04 04:40:33;;;;;;;6.95;4.43;;;;;;;21.12;53.88;99516.81;5025053;28;20021;-94
2022/07/04 04:43:01;;;;;;;7.03;3.03;;;;;;;21.12;53.73;99509.38;5022566;28;20021;-94
2022/07/04 04:45:26;;;;;;;9.15;4.38;;;;;;;21.04;53.30;99488.34;5021941;28;20079;-94
2022/07/04 04:47:53;;;;;;;4.47;3.65;;;;;;;21.16;53.89;99504.84;5022961;28;20028;-94
2022/07/04 04:50:20;;;;;;;7.78;4.53;;;;;;;21.18;53.40;99486.13;5026853;28;20083;-95
2022/07/04 04:52:45;;;;;;;5.82;3.67;;;;;;;21.31;53.22;99494.38;5022523;28;20048;-95
2022/07/04 04:55:11;;;;;;;8.30;3.70;;;;;;;21.35;52.86;99487.09;5024327;28;20423;-94
2022/07/04 04:57:44;;;;;;;9.13;3.70;;;;;;;21.59;51.90;99508.31;5023003;28;20021;-94
2022/07/04 05:00:12;;;;;;;7.65;3.42;;;;;;;21.65;52.22;99512.44;5022823;28;20036;-94
2022/07/04 05:02:43;;;;;;;6.85;3.58;;;;;;;21.61;52.10;99497.81;5023407;28;20029;-95
2022/07/04 05:05:11;;;;;;;4.50;3.50;;;;;;;21.67;51.80;99501.16;5023849;28;20032;-93
2022/07/04 05:07:37;;;;;;;7.05;3.70;;;;;;;21.67;52.01;99491.00;5038099;28;20107;-94
2022/07/04 05:10:03;;;;;;;10.18;3.50;;;;;;;21.75;52.36;99478.34;5022233;28;20056;-93
2022/07/04 05:12:28;;;;;;;15.98;4.10;;;;;;;21.97;52.43;99516.25;5022799;28;20506;-94
2022/07/04 05:14:54;;;;;;;6.82;3.40;;;;;;;22.22;51.78;99524.50;5022571;28;20025;-95
2022/07/04 05:17:20;;;;;;;6.20;4.03;;;;;;;22.30;51.46;99509.91;5022809;28;20025;-93
2022/07/04 05:19:45;;;;;;;15.98;5.78;;;;;;;22.42;50.74;99513.78;5022857;28;20467;-93
2022/07/04 05:22:14;;;;;;;9.50;3.83;;;;;;;22.43;50.55;99507.16;5025304;28;20060;-96
2022/07/04 05:27:08;;;;;;;13.52;3.58;;;;;;;22.57;50.10;99499.34;5073739;28;20142;-92
2022/07/04 05:29:33;;;;;;;14.32;4.80;;;;;;;22.73;50.25;99511.22;5021735;28;20037;-93
2022/07/04 05:32:04;;;;;;;15.20;5.63;;;;;;;22.67;49.64;99496.13;5011241;28;20025;-93
2022/07/04 05:34:30;;;;;;;11.95;5.00;;;;;;;22.93;49.82;99500.41;5015303;28;20556;-90
2022/07/04 05:36:55;;;;;;;9.23;6.25;;;;;;;23.14;48.93;99517.53;5014180;28;20033;-90
2022/07/04 05:39:21;;;;;;;10.90;4.80;;;;;;;23.14;49.27;99497.53;5019925;28;20326;-91
2022/07/04 05:41:46;;;;;;;52.15;22.25;;;;;;;23.40;49.76;99513.53;5019561;28;20127;-95
2022/07/04 05:44:12;;;;;;;7.70;4.18;;;;;;;23.38;50.01;99496.59;5019948;28;20043;-92
2022/07/04 05:46:37;;;;;;;9.10;4.10;;;;;;;23.43;49.96;99503.78;5002795;28;20044;-91
2022/07/04 05:49:03;;;;;;;9.07;4.40;;;;;;;23.54;49.02;99505.66;5019164;28;20028;-93
2022/07/04 05:51:28;;;;;;;7.22;4.03;;;;;;;23.66;48.99;99506.72;5023865;28;20033;-93
2022/07/04 05:53:54;;;;;;;9.52;4.50;;;;;;;23.74;48.38;99497.53;5020065;28;20025;-91
2022/07/04 05:56:23;;;;;;;9.77;5.40;;;;;;;23.85;48.74;99501.38;5003076;28;20055;-90
2022/07/04 05:59:31;;;;;;;;;;;;;;;;;;;;;
2022/07/04 06:01:57;;;;;;;11.20;5.30;;;;;;;23.85;47.16;99489.59;4998260;28;20072;-95
2022/07/04 06:04:23;;;;;;;16.15;6.20;;;;;;;24.11;46.38;99516.53;5038163;28;20056;-93
2022/07/04 06:06:51;;;;;;;8.32;4.90;;;;;;;24.08;46.82;99492.50;5021411;28;20029;-92
2022/07/04 06:09:19;;;;;;;14.05;5.00;;;;;;;24.21;46.82;99499.50;5019784;28;20048;-93
2022/07/04 06:11:44;;;;;;;7.95;4.10;;;;;;;24.38;46.52;99506.56;5004621;28;20033;-91
2022/07/04 06:14:11;;;;;;;16.65;5.90;;;;;;;24.46;46.08;99491.81;5020426;28;20037;-92
2022/07/04 06:16:37;;;;;;;6.90;4.00;;;;;;;24.66;46.00;99491.91;5020028;28;20044;-94
2022/07/04 06:19:03;;;;;;;11.10;4.28;;;;;;;24.70;46.11;99485.31;5004876;28;20431;-92
2022/07/04 06:21:28;;;;;;;11.13;5.88;;;;;;;24.69;45.81;99469.91;5003634;28;20104;-92
2022/07/04 06:23:54;;;;;;;5.65;3.70;;;;;;;24.94;46.54;99499.94;5019843;28;20024;-92
2022/07/04 06:26:19;;;;;;;14.48;3.80;;;;;;;24.96;46.03;99481.88;5003145;28;20491;-92
2022/07/04 06:28:45;;;;;;;17.88;4.43;;;;;;;25.09;46.17;99479.00;5021012;28;20025;-92
2022/07/04 06:31:11;;;;;;;16.00;4.53;;;;;;;25.25;44.84;99482.47;5004481;28;20479;-93
2022/07/04 06:35:44;;;;;;;15.15;5.00;;;;;;;25.28;45.52;99462.47;5019439;28;20031;-91
2022/07/04 06:36:25;;;;;;;9.05;5.78;;;;;;;25.47;44.44;99480.16;5025137;28;20059;-92
2022/07/04 06:38:53;;;;;;;9.70;4.72;;;;;;;25.50;44.35;99466.41;5019520;28;20024;-91
2022/07/04 06:41:57;;;;;;;6.25;3.28;;;;;;;25.57;42.82;99452.75;5020201;28;20025;-93
2022/07/04 06:44:40;;;;;;;9.05;3.50;;;;;;;25.80;43.05;99472.06;5043508;28;20025;-94
2022/07/04 06:47:05;;;;;;;8.75;3.60;;;;;;;25.89;42.31;99465.50;5024713;28;20028;-93
2022/07/04 06:49:31;;;;;;;7.85;3.58;;;;;;;26.12;42.02;99471.00;5022433;28;20032;-94
2022/07/04 06:52:02;;;;;;;9.45;3.50;;;;;;;26.23;41.70;99477.50;5019920;28;20028;-95
2022/07/04 06:54:31;;;;;;;15.60;7.90;;;;;;;26.28;42.79;99454.28;5007451;28;20016;-96
2022/07/04 06:57:00;;;;;;;16.13;7.75;;;;;;;26.46;41.99;99462.81;5004805;28;20064;-94
2022/07/04 06:59:26;;;;;;;11.95;3.67;;;;;;;26.47;40.41;99448.63;5005041;28;20517;-93
2022/07/04 07:01:51;;;;;;;17.50;5.70;;;;;;;26.64;40.86;99460.31;5008125;28;20065;-93
2022/07/04 07:04:17;;;;;;;17.65;7.95;;;;;;;26.65;40.14;99437.06;5008117;28;20044;-96
2022/07/04 07:06:43;;;;;;;12.20;4.10;;;;;;;26.90;39.89;99453.94;5022220;28;20025;-95
2022/07/04 07:09:09;;;;;;;6.43;3.35;;;;;;;27.04;39.47;99456.06;5006180;28;20059;-95
2022/07/04 07:11:44;;;;;;;10.00;3.40;;;;;;;27.21;38.96;99459.03;5023818;28;20028;-95
2022/07/04 07:14:40;;;;;;;;;;;;;;;;;;;;;
2022/07/04 07:17:11;;;;;;;10.63;4.93;;;;;;;27.41;37.65;99440.31;5045532;28;20111;-96
2022/07/04 07:19:36;;;;;;;18.85;10.75;;;;;;;27.57;37.22;99453.88;5028017;28;20025;-94
2022/07/04 07:22:02;;;;;;;8.80;6.05;;;;;;;27.73;37.16;99444.53;5011478;28;20029;-92
2022/07/04 07:24:42;;;;;;;6.22;3.15;;;;;;;27.82;35.53;99443.03;5005059;28;20033;-95
2022/07/04 07:27:08;;;;;;;8.18;3.10;;;;;;;27.92;35.17;99460.91;5023238;28;20056;-93
2022/07/04 07:29:46;;;;;;;6.78;4.97;;;;;;;28.09;35.37;99450.38;5003908;28;20021;-93
2022/07/04 07:32:20;;;;;;;5.03;2.75;;;;;;;28.18;34.16;99448.03;5021375;28;20021;-92
2022/07/04 07:34:46;;;;;;;5.35;3.00;;;;;;;28.20;33.42;99432.66;5008164;28;20017;-94
2022/07/04 07:37:17;;;;;;;12.55;5.20;;;;;;;28.44;34.07;99437.94;5009792;28;20100;-95
2022/07/04 07:39:43;;;;;;;9.60;3.08;;;;;;;28.42;33.84;99430.78;5003858;28;20131;-95
2022/07/04 07:42:15;;;;;;;7.35;3.58;;;;;;;28.55;34.31;99434.03;5004663;28;20082;-95
2022/07/04 07:48:14;;;;;;;9.20;4.30;;;;;;;28.83;35.04;99427.03;5050956;28;20059;-96
2022/07/04 07:50:50;;;;;;;4.32;2.70;;;;;;;29.06;32.79;99443.34;5015735;28;20017;-95
2022/07/04 07:53:36;;;;;;;8.20;2.72;;;;;;;29.20;33.73;99448.19;5029028;28;20033;-96
2022/07/04 07:56:02;;;;;;;6.05;3.20;;;;;;;29.34;34.49;99450.94;5030298;28;20021;-93
2022/07/04 07:58:28;;;;;;;5.25;2.78;;;;;;;29.45;32.71;99439.06;5010691;28;20037;-96
2022/07/04 08:01:04;;;;;;;8.93;3.35;;;;;;;29.42;32.61;99426.78;5015060;28;20017;-95
2022/07/04 08:06:15;;;;;;;15.15;7.50;;;;;;;29.63;32.13;99428.78;5050500;28;20114;-96
2022/07/04 08:09:01;;;;;;;10.30;3.78;;;;;;;29.83;32.30;99439.53;5008503;28;20499;-95
2022/07/04 08:11:27;;;;;;;8.82;3.97;;;;;;;30.00;31.43;99452.59;5042655;28;20033;-93
2022/07/04 08:13:53;;;;;;;15.73;4.30;;;;;;;29.97;31.07;99436.75;5012192;28;20021;-95
2022/07/04 08:16:21;;;;;;;6.40;2.97;;;;;;;30.10;30.70;99435.13;5005440;28;20039;-91
2022/07/04 08:18:47;;;;;;;11.02;2.88;;;;;;;30.16;29.20;99422.41;5008923;28;20096;-95
2022/07/04 08:21:16;;;;;;;10.38;2.80;;;;;;;30.28;29.36;99428.72;5007774;28;20499;-94
2022/07/04 08:23:51;;;;;;;5.10;2.85;;;;;;;30.26;29.59;99426.38;5004758;28;20033;-94
2022/07/04 08:26:35;;;;;;;9.43;4.82;;;;;;;30.38;29.95;99427.94;4991262;28;20077;-96
2022/07/04 08:29:01;;;;;;;8.63;3.60;;;;;;;30.52;30.16;99432.66;5022981;28;20518;-94
2022/07/04 08:31:30;;;;;;;10.02;3.97;;;;;;;30.60;30.35;99425.88;5002210;28;20025;-92
2022/07/04 08:33:58;;;;;;;8.25;2.90;;;;;;;30.61;29.79;99427.50;5018253;28;20460;-92
2022/07/04 08:36:23;;;;;;;26.05;4.10;;;;;;;30.55;29.76;99417.97;5002733;28;20031;-91
2022/07/04 08:38:50;;;;;;;11.10;4.00;;;;;;;30.78;29.54;99443.28;5018381;28;20017;-93
2022/07/04 08:41:16;;;;;;;8.73;3.05;;;;;;;30.77;28.79;99450.03;5018535;28;20513;-91
2022/07/04 08:43:41;;;;;;;10.07;3.63;;;;;;;30.79;28.40;99446.84;5018600;28;20032;-93
2022/07/04 08:46:07;;;;;;;12.27;5.15;;;;;;;30.71;27.76;99436.97;5018150;28;20480;-91
2022/07/04 08:48:33;;;;;;;9.80;4.25;;;;;;;30.80;28.49;99438.13;5018202;28;20033;-95
2022/07/04 08:51:12;;;;;;;9.23;3.30;;;;;;;30.89;28.65;99434.13;5002397;28;20021;-95
2022/07/04 08:53:38;;;;;;;8.50;4.60;;;;;;;31.03;28.97;99453.53;5017679;28;20491;-92
2022/07/04 08:58:48;;;;;;;8.10;3.20;;;;;;;30.90;28.10;99435.72;5021033;28;20099;-94
2022/07/04 09:01:16;;;;;;;12.55;3.80;;;;;;;31.14;28.25;99448.69;5002172;28;20021;-94
2022/07/04 09:03:43;;;;;;;10.43;5.40;;;;;;;31.13;28.45;99438.78;5003428;28;20025;-93
2022/07/04 09:06:09;;;;;;;9.85;3.63;;;;;;;31.20;28.10;99437.94;5002055;28;20407;-94
2022/07/04 09:08:43;;;;;;;8.73;3.05;;;;;;;31.07;27.51;99442.38;5001988;28;20484;-91
2022/07/04 09:11:09;;;;;;;6.88;3.58;;;;;;;31.13;27.72;99438.78;5017404;28;20495;-93
2022/07/04 09:13:35;;;;;;;7.00;2.83;;;;;;;31.25;28.13;99433.91;5002694;28;20041;-94
2022/07/04 09:16:01;;;;;;;18.15;3.63;;;;;;;31.34;28.34;99443.41;5001696;28;20029;-95
2022/07/04 09:18:27;;;;;;;6.18;2.85;;;;;;;31.54;28.42;99454.81;5002175;28;20558;-93
2022/07/04 09:20:59;;;;;;;5.68;3.20;;;;;;;31.50;28.27;99439.34;5019859;28;20033;-93
2022/07/04 09:23:26;;;;;;;7.05;4.78;;;;;;;31.56;28.33;99432.13;5017974;28;20030;-90
2022/07/04 09:26:17;;;;;;;10.57;3.50;;;;;;;31.76;27.75;99455.44;5018500;28;20108;-95
2022/07/04 09:28:45;;;;;;;8.80;3.67;;;;;;;31.74;28.56;99437.56;5017892;28;20231;-94
2022/07/04 09:31:21;;;;;;;9.57;3.40;;;;;;;31.67;27.57;99420.91;5001247;28;20060;-95
2022/07/04 09:33:54;;;;;;;10.40;4.65;;;;;;;31.82;27.25;99430.72;5002978;28;20029;-93
2022/07/04 09:36:46;;;;;;;11.98;3.70;;;;;;;31.70;27.47;99418.09;5004598;28;20374;-95
2022/07/04 09:39:37;;;;;;;13.45;3.53;;;;;;;31.81;28.23;99429.13;5022694;28;20075;-95
2022/07/04 09:42:03;;;;;;;5.93;3.80;;;;;;;31.82;28.43;99414.81;4988017;28;20041;-93
2022/07/04 09:44:43;;;;;;;6.68;3.83;;;;;;;31.91;28.11;99419.91;4961024;28;20524;-92
2022/07/04 09:47:27;;;;;;;7.63;4.88;;;;;;;32.05;28.05;99424.56;4982233;28;20128;-94
2022/07/04 09:50:20;;;;;;;7.70;3.80;;;;;;;32.17;27.54;99432.41;5000153;28;20094;-93
2022/07/04 09:52:56;;;;;;;13.48;3.90;;;;;;;31.97;26.38;99421.03;4982682;28;20040;-95
2022/07/04 09:55:37;;;;;;;9.98;4.35;;;;;;;32.11;26.46;99434.06;4971681;28;20100;-94
2022/07/04 09:58:15;;;;;;;7.05;3.03;;;;;;;31.96;26.59;99413.88;4985912;28;20188;-95
2022/07/04 10:00:46;;;;;;;6.50;4.30;;;;;;;32.03;27.48;99403.91;4983693;28;20423;-95
2022/07/04 10:03:40;;;;;;;;;;;;;;;32.20;26.96;99419.63;4969303;28;20029;-95
2022/07/04 10:06:32;;;;;;;6.22;2.60;;;;;;;32.04;26.95;99424.97;5005637;28;19924;-96
2022/07/04 10:09:40;;;;;;;11.07;4.13;;;;;;;32.12;27.51;99420.91;5001183;28;20085;-93
2022/07/04 10:12:06;;;;;;;11.70;4.00;;;;;;;32.05;27.67;99395.94;5016345;28;20100;-94
2022/07/04 10:14:44;;;;;;;6.18;2.60;;;;;;;32.07;27.47;99390.75;4988191;28;20022;-96
2022/07/04 10:25:48;;;;;;;6.60;3.17;;;;;;;32.48;28.06;99412.16;5375409;22;21177;31
2022/07/04 10:28:55;;;;;;;4.80;2.55;;;;;;;32.40;27.25;99389.94;5103517;23;20046;-96
2022/07/04 10:34:23;;;;;;;10.18;3.67;;;;;;;32.52;27.92;99387.81;5098402;22;20064;-95
2022/07/04 10:39:46;;;;;;;6.22;2.38;;;;;;;32.64;27.06;99392.88;5343189;23;20036;-96
2022/07/04 10:42:43;;;;;;;8.13;2.92;;;;;;;32.66;27.29;99384.88;5059595;28;20032;-96
2022/07/04 10:55:00;;;;;;;4.90;2.90;;;;;;;32.78;26.91;99369.56;5008594;28;20050;-96
2022/07/04 10:57:52;;;;;;;6.38;2.50;;;;;;;32.88;27.10;99365.06;4958693;29;20042;-94
2022/07/04 11:00:17;;;;;;;7.95;3.20;;;;;;;33.02;27.41;99364.88;4908641;29;20036;-94
2022/07/04 11:02:43;;;;;;;7.07;3.45;;;;;;;33.21;27.02;99372.56;4934382;28;20073;-95
2022/07/04 11:05:09;;;;;;;7.93;2.88;;;;;;;33.14;26.36;99369.88;4957080;28;20062;-93
2022/07/04 11:07:35;;;;;;;5.05;2.80;;;;;;;33.11;26.42;99365.13;5080946;23;20527;-94
2022/07/04 11:10:25;;;;;;;4.63;2.83;;;;;;;33.18;26.21;99365.03;5036630;28;20048;-94
2022/07/04 11:12:54;;;;;;;7.68;2.90;;;;;;;33.31;26.01;99379.19;5025071;28;20030;-91
2022/07/04 11:15:49;;;;;;;5.10;2.70;;;;;;;33.34;25.50;99366.38;5033743;28;20479;-94
2022/07/04 11:18:14;;;;;;;6.95;2.65;;;;;;;33.21;25.55;99341.84;4998148;28;20088;-90
2022/07/04 11:20:47;;;;;;;7.22;2.50;;;;;;;33.33;25.66;99345.25;5000645;28;20026;-94
2022/07/04 11:23:17;;;;;;;8.85;4.25;;;;;;;33.28;25.97;99335.34;5003816;28;20097;-90
2022/07/04 11:25:46;;;;;;;8.05;3.92;;;;;;;33.42;25.73;99360.25;5005086;28;20106;-91
2022/07/04 11:28:36;;;;;;;7.00;3.15;;;;;;;33.52;25.64;99352.91;5003571;28;20029;-90
2022/07/04 11:31:11;;;;;;;5.13;2.42;;;;;;;33.52;24.66;99338.16;5024548;28;20029;-92
2022/07/04 11:33:38;;;;;;;8.15;2.60;;;;;;;33.52;24.89;99350.13;5006531;28;20024;-90
2022/07/04 11:36:07;;;;;;;4.65;2.60;;;;;;;33.65;25.01;99361.50;5051627;28;20401;-89
2022/07/04 11:38:49;;;;;;;5.80;2.85;;;;;;;33.55;25.19;99338.09;5035723;28;20053;-91
2022/07/04 11:46:49;;;;;;;5.97;2.75;;;;;;;33.53;25.02;99332.13;5016801;28;20435;-93
2022/07/04 11:49:17;;;;;;;6.45;2.80;;;;;;;33.64;25.01;99332.00;4986186;28;20053;-91
2022/07/04 11:51:52;;;;;;;8.00;2.85;;;;;;;33.60;25.65;99328.44;4985356;28;20041;-91
2022/07/04 11:54:18;;;;;;;6.88;3.08;;;;;;;33.64;25.38;99328.41;4990826;28;20026;-93
2022/07/04 11:56:44;;;;;;;8.10;3.13;;;;;;;33.47;25.34;99319.88;4984074;28;20084;-89
2022/07/04 11:59:11;;;;;;;5.85;3.38;;;;;;;33.50;25.13;99316.25;4990942;28;20068;-92
2022/07/04 12:01:37;;;;;;;6.28;3.00;;;;;;;33.50;25.51;99313.47;5000967;28;20025;-95
2022/07/04 12:04:16;;;;;;;5.55;2.90;;;;;;;33.44;24.59;99314.38;5000219;28;20121;-93
2022/07/04 12:06:42;;;;;;;8.80;2.90;;;;;;;33.35;25.42;99317.69;5004468;28;20132;-91
2022/07/04 12:09:16;;;;;;;9.95;3.75;;;;;;;33.31;24.81;99323.38;5004843;28;20033;-92
2022/07/04 12:11:53;;;;;;;8.73;4.40;;;;;;;33.43;24.89;99327.53;5006662;28;20025;-94
2022/07/04 12:14:19;;;;;;;8.60;2.78;;;;;;;33.44;25.16;99328.34;5024161;28;20029;-93
2022/07/04 12:16:44;;;;;;;5.35;2.75;;;;;;;33.57;25.19;99323.69;5003059;28;20483;-94
2022/07/04 12:19:10;;;;;;;9.88;2.78;;;;;;;33.58;24.78;99328.88;5007070;28;20025;-94
2022/07/04 12:21:35;;;;;;;8.15;4.00;;;;;;;33.58;24.72;99326.06;5006641;28;20025;-91
2022/07/04 12:24:03;;;;;;;10.18;3.67;;;;;;;33.69;25.14;99322.34;5002639;28;20035;-95
2022/07/04 12:26:30;;;;;;;6.65;2.75;;;;;;;33.73;23.84;99326.63;5004129;28;20124;-93
2022/07/04 12:28:56;;;;;;;7.45;3.53;;;;;;;33.77;24.84;99326.56;5002820;28;20037;-94
2022/07/04 12:31:38;;;;;;;7.15;3.28;;;;;;;33.87;24.99;99310.81;5003311;28;20487;-93